Time;durP1;ratioP1;P1;durP2;ratioP2;P2;SDS_P1;SDS_P2;PMS_P1;PMS_P2;Temp;Humidity;BMP_temperature;BMP_pressure;BME280_temperature;BME280_humidity;BME280_pressure;Samples;Min_cycle;Max_cycle;Signal;HPM_P1;HPM_P2
2022/05/01 00:01:51;;;;;;;32.50;16.80;;;;;;;-141.50;100.00;63355.56;5102760;28;20055;-83
2022/05/01 00:04:17;;;;;;;33.92;16.67;;;;;;;-141.50;100.00;63355.56;5122058;28;20087;-82
2022/05/01 00:06:47;;;;;;;36.28;16.83;;;;;;;-141.50;100.00;63355.56;5125833;28;20055;-82
2022/05/01 00:09:14;;;;;;;30.33;17.13;;;;;;;-141.50;100.00;63355.56;5126378;28;20058;-82
2022/05/01 00:11:43;;;;;;;29.20;17.30;;;;;;;-141.50;100.00;63355.56;5127122;28;20085;-83
2022/05/01 00:14:13;;;;;;;34.65;18.02;;;;;;;-141.50;100.00;63355.56;5129024;28;20127;-81
2022/05/01 00:16:40;;;;;;;34.28;17.35;;;;;;;-141.50;100.00;63355.56;5129715;28;20047;-82
2022/05/01 00:19:08;;;;;;;30.42;17.90;;;;;;;-141.50;100.00;63355.56;5128928;28;20046;-83
2022/05/01 00:21:38;;;;;;;39.08;18.52;;;;;;;-141.50;100.00;63355.56;5128346;28;20044;-81
2022/05/01 00:24:06;;;;;;;31.27;18.08;;;;;;;-141.50;100.00;63355.56;5128680;28;20047;-82
2022/05/01 00:26:33;;;;;;;34.40;18.90;;;;;;;-141.50;100.00;63355.56;5127150;28;20105;-82
2022/05/01 00:29:05;;;;;;;34.05;18.67;;;;;;;-141.50;100.00;63355.56;5108684;28;20063;-82
2022/05/01 00:31:34;;;;;;;42.55;18.73;;;;;;;-141.50;100.00;63355.56;5123693;28;20100;-81
2022/05/01 00:36:46;;;;;;;34.45;19.20;;;;;;;-141.50;100.00;63355.56;5121475;28;20051;-82
2022/05/01 00:39:12;;;;;;;39.45;19.30;;;;;;;-141.50;100.00;63355.56;5097923;28;20043;-81
2022/05/01 00:41:40;;;;;;;35.78;18.88;;;;;;;-141.50;100.00;63355.56;5104252;28;20062;-80
2022/05/01 00:44:11;;;;;;;35.55;18.40;;;;;;;-141.50;100.00;63355.56;5122643;28;20048;-81
2022/05/01 00:46:41;;;;;;;38.88;19.23;;;;;;;-141.50;100.00;63355.56;5122757;28;20047;-81
2022/05/01 00:49:16;;;;;;;38.63;20.20;;;;;;;-141.50;100.00;63355.56;5122579;28;20062;-81
2022/05/01 00:51:46;;;;;;;38.00;19.02;;;;;;;-141.50;100.00;63355.56;5121905;28;20075;-82
2022/05/01 00:54:16;;;;;;;42.55;19.92;;;;;;;-141.50;100.00;63355.56;5121677;28;20066;-80
2022/05/01 00:56:52;;;;;;;39.28;19.88;;;;;;;-141.50;100.00;63355.56;5120523;28;20075;-82
2022/05/01 00:59:18;;;;;;;43.08;20.48;;;;;;;-141.50;100.00;63355.56;5105378;28;20101;-83
2022/05/01 01:01:47;;;;;;;44.35;20.45;;;;;;;-141.50;100.00;63355.56;5103416;28;20044;-82
2022/05/01 01:04:16;;;;;;;35.97;19.30;;;;;;;-141.50;100.00;63355.56;5119624;28;20462;-82
2022/05/01 01:06:48;;;;;;;39.60;19.85;;;;;;;-141.50;100.00;63355.56;5123702;28;20051;-82
2022/05/01 01:09:16;;;;;;;42.88;20.65;;;;;;;-141.50;100.00;63355.56;5124675;28;20047;-81
2022/05/01 01:11:44;;;;;;;44.70;20.13;;;;;;;-141.50;100.00;63355.56;5121927;28;20402;-83
2022/05/01 01:14:11;;;;;;;39.10;20.85;;;;;;;-141.50;100.00;63355.56;5126668;28;20604;-81
2022/05/01 01:16:39;;;;;;;39.13;20.13;;;;;;;-141.50;100.00;63355.56;5129103;28;20051;-83
2022/05/01 01:19:08;;;;;;;45.47;20.60;;;;;;;-141.50;100.00;63355.56;5105689;28;20043;-82
2022/05/01 01:21:36;;;;;;;38.72;19.38;;;;;;;-141.50;100.00;63355.56;5126198;28;20051;-83
2022/05/01 01:24:06;;;;;;;37.13;19.15;;;;;;;-141.50;100.00;63355.56;5127287;28;20125;-82
2022/05/01 01:26:35;;;;;;;35.72;20.05;;;;;;;-141.50;100.00;63355.56;5115733;28;20044;-81
2022/05/01 01:31:40;;;;;;;44.72;21.92;;;;;;;-141.50;100.00;63355.56;5119455;28;20073;-82
2022/05/01 01:31:55;;;;;;;44.80;21.30;;;;;;;-141.50;100.00;63355.56;5134055;28;20059;-82
2022/05/01 01:34:26;;;;;;;41.20;19.73;;;;;;;-141.50;100.00;63355.56;5127747;28;20051;-82
2022/05/01 01:36:53;;;;;;;42.78;19.45;;;;;;;-141.50;100.00;63355.56;5107676;28;20052;-79
2022/05/01 01:39:23;;;;;;;37.50;19.75;;;;;;;-141.50;100.00;63355.56;5112108;28;20048;-82
2022/05/01 01:41:52;;;;;;;34.85;20.20;;;;;;;-141.50;100.00;63355.56;5124904;28;20052;-82
2022/05/01 01:44:20;;;;;;;42.05;21.50;;;;;;;-141.50;100.00;63355.56;5125181;28;20055;-82
2022/05/01 01:46:47;;;;;;;37.35;19.77;;;;;;;-141.50;100.00;63355.56;5124307;28;20047;-82
2022/05/01 01:49:14;;;;;;;50.78;21.48;;;;;;;-141.50;100.00;63355.56;5124696;28;20065;-81
2022/05/01 01:51:40;;;;;;;38.58;19.75;;;;;;;-141.50;100.00;63355.56;5125011;28;20055;-81
2022/05/01 01:54:17;;;;;;;44.67;20.95;;;;;;;-141.50;100.00;63355.56;5108337;28;20048;-82
2022/05/01 01:56:48;;;;;;;39.20;21.38;;;;;;;-141.50;100.00;63355.56;5129615;28;20055;-82
2022/05/01 01:59:18;;;;;;;43.67;20.73;;;;;;;-141.50;100.00;63355.56;5129934;28;20070;-82
2022/05/01 02:01:45;;;;;;;43.28;20.80;;;;;;;-141.50;100.00;63355.56;5110161;28;20122;-84
2022/05/01 02:04:11;;;;;;;46.10;20.75;;;;;;;-141.50;100.00;63355.56;5110749;28;20044;-83
2022/05/01 02:06:43;;;;;;;39.13;19.95;;;;;;;-141.50;100.00;63355.56;5111978;28;20063;-83
2022/05/01 02:09:17;;;;;;;40.28;20.45;;;;;;;-141.50;100.00;63355.56;5127915;28;20051;-82
2022/05/01 02:11:46;;;;;;;46.22;20.98;;;;;;;-141.50;100.00;63355.56;5107864;28;20085;-83
2022/05/01 02:14:16;;;;;;;37.53;20.00;;;;;;;-141.50;100.00;63355.56;5110340;28;20057;-83
2022/05/01 02:16:43;;;;;;;38.03;19.88;;;;;;;-141.50;100.00;63355.56;5128225;28;20056;-81
2022/05/01 02:19:11;;;;;;;36.92;19.20;;;;;;;-141.50;100.00;63355.56;5126878;28;20135;-82
2022/05/01 02:21:40;;;;;;;40.80;20.80;;;;;;;-141.50;100.00;63355.56;5125882;28;20077;-83
2022/05/01 02:24:11;;;;;;;39.80;20.55;;;;;;;-141.50;100.00;63355.56;5126266;28;20052;-82
2022/05/01 02:26:38;;;;;;;43.78;21.15;;;;;;;-141.50;100.00;63355.56;5124116;28;20082;-81
2022/05/01 02:29:14;;;;;;;37.72;19.42;;;;;;;-141.50;100.00;63355.56;5126938;28;20194;-82
2022/05/01 02:31:42;;;;;;;42.03;19.75;;;;;;;-141.50;100.00;63355.56;5126810;28;20047;-82
2022/05/01 02:34:13;;;;;;;37.22;18.17;;;;;;;-141.50;100.00;63355.56;5107818;28;20062;-82
2022/05/01 02:36:40;;;;;;;39.83;19.08;;;;;;;-141.50;100.00;63355.56;5127199;28;20048;-82
2022/05/01 02:39:14;;;;;;;45.50;19.85;;;;;;;-141.50;100.00;63355.56;5126671;28;20046;-81
2022/05/01 02:41:43;;;;;;;34.47;18.05;;;;;;;-141.50;100.00;63355.56;5124091;28;20093;-82
2022/05/01 02:44:13;;;;;;;38.75;19.38;;;;;;;-141.50;100.00;63355.56;5121197;28;20051;-81
2022/05/01 02:46:39;;;;;;;37.33;18.83;;;;;;;-141.50;100.00;63355.56;5122863;28;20119;-83
2022/05/01 02:49:08;;;;;;;34.42;18.33;;;;;;;-141.50;100.00;63355.56;5123210;28;20047;-81
2022/05/01 02:51:36;;;;;;;38.50;18.67;;;;;;;-141.50;100.00;63355.56;5123855;28;20051;-81
2022/05/01 02:54:06;;;;;;;42.30;18.35;;;;;;;-141.50;100.00;63355.56;5125501;28;20203;-81
2022/05/01 02:56:35;;;;;;;38.38;18.83;;;;;;;-141.50;100.00;63355.56;5125802;28;20121;-82
2022/05/01 02:59:02;;;;;;;35.90;17.75;;;;;;;-141.50;100.00;63355.56;5123660;28;20047;-81
2022/05/01 03:01:31;;;;;;;34.92;18.50;;;;;;;-141.50;100.00;63355.56;5118744;28;20044;-82
2022/05/01 03:04:14;;;;;;;;;;;;;;;;;;;;;
2022/05/01 03:06:41;;;;;;;35.10;17.08;;;;;;;-141.50;100.00;63355.56;5115860;28;20093;-83
2022/05/01 03:09:08;;;;;;;39.47;18.98;;;;;;;-141.50;100.00;63355.56;5120748;28;20051;-82
2022/05/01 03:11:40;;;;;;;36.17;17.73;;;;;;;-141.50;100.00;63355.56;5121630;28;20043;-82
2022/05/01 03:14:09;;;;;;;34.90;16.92;;;;;;;-141.50;100.00;63355.56;5106655;28;20077;-82
2022/05/01 03:16:36;;;;;;;37.45;17.95;;;;;;;-141.50;100.00;63355.56;5124623;28;20474;-81
2022/05/01 03:24:41;;;;;;;38.70;17.27;;;;;;;-141.50;100.00;63355.56;5122173;28;20043;-81
2022/05/01 03:27:09;;;;;;;32.88;16.38;;;;;;;-141.50;100.00;63355.56;5107067;28;20047;-82
2022/05/01 03:29:42;;;;;;;33.47;16.98;;;;;;;-141.50;100.00;63355.56;5129407;28;20043;-81
2022/05/01 03:32:29;;;;;;;33.40;15.80;;;;;;;-141.50;100.00;63355.56;5128493;28;20055;-81
2022/05/01 03:35:07;;;;;;;31.52;17.10;;;;;;;-141.50;100.00;63355.56;5128471;28;20055;-81
2022/05/01 03:37:33;;;;;;;30.67;16.50;;;;;;;-141.50;100.00;63355.56;5116320;28;20093;-82
2022/05/01 03:40:00;;;;;;;31.10;16.20;;;;;;;-141.50;100.00;63355.56;5099202;28;20116;-82
2022/05/01 03:42:27;;;;;;;34.65;17.52;;;;;;;-141.50;100.00;63355.56;5124129;28;20104;-81
2022/05/01 03:45:11;;;;;;;33.17;17.25;;;;;;;-141.50;100.00;63355.56;5107217;28;20532;-82
2022/05/01 03:47:41;;;;;;;28.20;16.27;;;;;;;-141.50;100.00;63355.56;5126625;28;20358;-82
2022/05/01 03:50:15;;;;;;;33.83;17.25;;;;;;;-141.50;100.00;63355.56;5128549;28;20059;-81
2022/05/01 03:52:41;;;;;;;33.63;16.73;;;;;;;-141.50;100.00;63355.56;5130797;28;20065;-81
2022/05/01 03:55:15;;;;;;;31.50;16.48;;;;;;;-141.50;100.00;63355.56;5140235;27;20040;-82
2022/05/01 03:57:41;;;;;;;37.88;17.23;;;;;;;-141.50;100.00;63355.56;5139723;27;20087;-82
2022/05/01 04:00:18;;;;;;;35.83;16.90;;;;;;;-141.50;100.00;63355.56;5140019;27;20065;-79
2022/05/01 04:02:46;;;;;;;31.27;16.75;;;;;;;-141.50;100.00;63355.56;5131359;28;20115;-83
2022/05/01 04:05:14;;;;;;;33.20;16.70;;;;;;;-141.50;100.00;63355.56;5134847;28;20051;-81
2022/05/01 04:07:47;;;;;;;33.97;16.95;;;;;;;-141.50;100.00;63355.56;5131003;28;20047;-83
2022/05/01 04:10:16;;;;;;;35.40;15.95;;;;;;;-141.50;100.00;63355.56;5129081;28;20039;-83
2022/05/01 04:12:44;;;;;;;37.00;16.80;;;;;;;-141.50;100.00;63355.56;5127584;28;20130;-83
2022/05/01 04:15:19;;;;;;;31.38;16.42;;;;;;;-141.50;100.00;63355.56;5124462;28;20051;-83
2022/05/01 04:17:46;;;;;;;35.80;15.40;;;;;;;-141.50;100.00;63355.56;5127906;28;20067;-82
2022/05/01 04:20:15;;;;;;;32.20;15.98;;;;;;;-141.50;100.00;63355.56;5127136;28;20047;-83
2022/05/01 04:22:44;;;;;;;34.58;15.90;;;;;;;-141.50;100.00;63355.56;5123439;28;20060;-82
2022/05/01 04:25:21;;;;;;;27.95;15.77;;;;;;;-141.50;100.00;63355.56;5124428;28;20047;-82
2022/05/01 04:27:56;;;;;;;30.58;16.15;;;;;;;-141.50;100.00;63355.56;5101017;28;20077;-82
2022/05/01 04:30:33;;;;;;;;;;;;;;;;;;;;;
2022/05/01 04:33:13;;;;;;;31.15;15.15;;;;;;;-141.50;100.00;63355.56;5105176;28;20458;-81
2022/05/01 04:35:46;;;;;;;26.75;14.45;;;;;;;-141.50;100.00;63355.56;5103558;28;20221;-82
2022/05/01 04:38:15;;;;;;;29.17;15.20;;;;;;;-141.50;100.00;63355.56;5085917;28;20070;-81
2022/05/01 04:40:45;;;;;;;34.25;15.15;;;;;;;-141.50;100.00;63355.56;5115146;28;20089;-81
2022/05/01 04:43:13;;;;;;;27.50;14.57;;;;;;;-141.50;100.00;63355.56;5116407;28;20097;-81
2022/05/01 04:45:44;;;;;;;26.23;14.60;;;;;;;-141.50;100.00;63355.56;5117230;28;20124;-82
2022/05/01 04:48:12;;;;;;;33.88;14.68;;;;;;;-141.50;100.00;63355.56;5118692;28;20055;-82
2022/05/01 04:50:47;;;;;;;30.60;14.25;;;;;;;-141.50;100.00;63355.56;5105269;28;20051;-82
2022/05/01 04:53:18;;;;;;;26.88;14.70;;;;;;;-141.50;100.00;63355.56;5125269;28;20089;-83
2022/05/01 04:55:46;;;;;;;32.53;14.23;;;;;;;-141.50;100.00;63355.56;5136591;27;20039;-84
2022/05/01 04:58:17;;;;;;;28.73;14.68;;;;;;;-141.50;100.00;63355.56;5138038;28;20048;-82
2022/05/01 05:00:44;;;;;;;30.25;14.68;;;;;;;-141.50;100.00;63355.56;5123723;27;20094;-80
2022/05/01 05:03:13;;;;;;;32.42;14.82;;;;;;;-141.50;100.00;63355.56;5098931;28;20075;-82
2022/05/01 05:05:40;;;;;;;26.38;13.70;;;;;;;-141.50;100.00;63355.56;5118282;28;20066;-81
2022/05/01 05:10:54;;;;;;;29.35;14.82;;;;;;;-141.50;100.00;63355.56;5119871;28;20480;-82
2022/05/01 05:13:42;;;;;;;30.25;14.00;;;;;;;-141.50;100.00;63355.56;5116394;28;20055;-80
2022/05/01 05:16:13;;;;;;;26.98;14.80;;;;;;;-141.50;100.00;63355.56;5117177;28;20055;-82
2022/05/01 05:18:43;;;;;;;27.73;14.65;;;;;;;-141.50;100.00;63355.56;5117914;28;20047;-81
2022/05/01 05:21:12;;;;;;;31.48;14.98;;;;;;;-141.50;100.00;63355.56;5119020;28;20051;-81
2022/05/01 05:23:52;;;;;;;30.83;14.80;;;;;;;-141.50;100.00;63355.56;5099234;28;20058;-82
2022/05/01 05:26:18;;;;;;;33.08;14.65;;;;;;;-141.50;100.00;63355.56;5105255;28;20047;-82
2022/05/01 05:28:47;;;;;;;25.30;13.65;;;;;;;-141.50;100.00;63355.56;5114790;28;20051;-81
2022/05/01 05:31:14;;;;;;;27.95;13.35;;;;;;;-141.50;100.00;63355.56;5117755;28;20128;-81
2022/05/01 05:33:40;;;;;;;26.10;14.00;;;;;;;-141.50;100.00;63355.56;5118019;28;20120;-82
2022/05/01 05:36:15;;;;;;;26.77;13.82;;;;;;;-141.50;100.00;63355.56;5116961;28;20048;-81
2022/05/01 05:38:42;;;;;;;27.10;12.18;;;;;;;-141.50;100.00;63355.56;5114466;28;20075;-82
2022/05/01 05:41:15;;;;;;;29.25;12.90;;;;;;;-141.50;100.00;63355.56;5099287;27;20504;-83
2022/05/01 05:43:44;;;;;;;30.20;12.63;;;;;;;-141.50;100.00;63355.56;5108529;28;20043;-84
2022/05/01 05:46:10;;;;;;;24.67;12.27;;;;;;;-141.50;100.00;63355.56;5105301;28;20043;-81
2022/05/01 05:48:40;;;;;;;20.83;12.27;;;;;;;-141.50;100.00;63355.56;5107680;28;20478;-82
2022/05/01 05:51:07;;;;;;;25.65;12.43;;;;;;;-141.50;100.00;63355.56;5090477;28;20356;-82
2022/05/01 05:53:38;;;;;;;22.85;12.00;;;;;;;-141.50;100.00;63355.56;5100727;28;20043;-82
2022/05/01 05:56:09;;;;;;;23.35;11.98;;;;;;;-141.50;100.00;63355.56;5102159;28;20083;-82
2022/05/01 05:58:35;;;;;;;21.73;11.45;;;;;;;-141.50;100.00;63355.56;5114922;28;20051;-81
2022/05/01 06:01:05;;;;;;;21.48;11.52;;;;;;;-141.50;100.00;63355.56;5090650;28;20040;-82
2022/05/01 06:03:32;;;;;;;25.15;11.38;;;;;;;-141.50;100.00;63355.56;5070125;28;20056;-82
2022/05/01 06:06:00;;;;;;;22.75;11.45;;;;;;;-141.50;100.00;63355.56;5087988;28;20044;-81
2022/05/01 06:08:27;;;;;;;23.60;11.07;;;;;;;-141.50;100.00;63355.56;5069309;28;20059;-81
2022/05/01 06:10:54;;;;;;;23.80;12.02;;;;;;;-141.50;100.00;63355.56;5085587;28;20210;-80
2022/05/01 06:13:21;;;;;;;23.15;11.30;;;;;;;-141.50;100.00;63355.56;5079937;28;20128;-81
2022/05/01 06:15:48;;;;;;;21.02;10.73;;;;;;;-141.50;100.00;63355.56;5108683;28;20086;-82
2022/05/01 06:18:14;;;;;;;24.88;10.40;;;;;;;-141.50;100.00;63355.56;5098427;28;20107;-81
2022/05/01 06:20:44;;;;;;;19.73;10.23;;;;;;;-141.50;100.00;63355.56;5088281;28;20044;-79
2022/05/01 06:23:13;;;;;;;25.25;11.35;;;;;;;-141.50;100.00;63355.56;5100744;28;20077;-80
2022/05/01 06:25:46;;;;;;;30.48;10.88;;;;;;;-141.50;100.00;63355.56;5094307;28;20101;-83
2022/05/01 06:28:17;;;;;;;22.20;10.27;;;;;;;-141.50;100.00;63355.56;5093328;28;20052;-81
2022/05/01 06:30:49;;;;;;;22.75;10.63;;;;;;;-141.50;100.00;63355.56;5093572;28;20048;-81
2022/05/01 06:33:20;;;;;;;23.88;10.77;;;;;;;-141.50;100.00;63355.56;5087908;28;20145;-83
2022/05/01 06:35:51;;;;;;;22.35;11.05;;;;;;;-141.50;100.00;63355.56;5075747;28;20044;-82
2022/05/01 06:38:23;;;;;;;23.10;10.63;;;;;;;-141.50;100.00;63355.56;5104275;28;20055;-82
2022/05/01 06:40:50;;;;;;;25.00;10.55;;;;;;;-141.50;100.00;63355.56;5092268;28;20526;-83
2022/05/01 06:43:19;;;;;;;26.05;10.85;;;;;;;-141.50;100.00;63355.56;5099473;28;20124;-82
2022/05/01 06:45:49;;;;;;;19.48;10.75;;;;;;;-141.50;100.00;63355.56;5091596;28;20514;-82
2022/05/01 06:48:18;;;;;;;26.23;10.40;;;;;;;-141.50;100.00;63355.56;5094088;28;20146;-81
2022/05/01 06:50:47;;;;;;;19.55;10.15;;;;;;;-141.50;100.00;63355.56;5107798;28;20484;-82
2022/05/01 06:53:15;;;;;;;23.33;10.32;;;;;;;-141.50;100.00;63355.56;5088660;28;20060;-82
2022/05/01 06:55:43;;;;;;;32.42;13.35;;;;;;;-141.50;100.00;63355.56;5086311;28;20064;-83
2022/05/01 06:58:15;;;;;;;26.35;14.20;;;;;;;-141.50;100.00;63355.56;5088827;28;20048;-82
2022/05/01 07:00:43;;;;;;;23.17;13.93;;;;;;;-141.50;100.00;63355.56;5088202;28;20044;-80
2022/05/01 07:03:09;;;;;;;29.17;15.43;;;;;;;-141.50;100.00;63355.56;5090225;28;20713;-82
2022/05/01 07:05:36;;;;;;;27.35;14.98;;;;;;;-141.50;100.00;63355.56;5072959;28;20402;-81
2022/05/01 07:08:03;;;;;;;31.17;15.68;;;;;;;-141.50;100.00;63355.56;5077352;28;20498;-82
2022/05/01 07:10:35;;;;;;;21.20;9.95;;;;;;;-141.50;100.00;63355.56;5090213;28;20051;-83
2022/05/01 07:13:01;;;;;;;23.05;11.88;;;;;;;-141.50;100.00;63355.56;5096624;28;20430;-83
2022/05/01 07:15:28;;;;;;;27.65;15.00;;;;;;;-141.50;100.00;63355.56;5090617;28;20098;-83
2022/05/01 07:17:55;;;;;;;19.55;11.75;;;;;;;-141.50;100.00;63355.56;5091298;28;20076;-82
2022/05/01 07:20:21;;;;;;;22.25;13.43;;;;;;;-141.50;100.00;63355.56;5072176;28;20044;-84
2022/05/01 07:22:48;;;;;;;27.40;14.15;;;;;;;-141.50;100.00;63355.56;5088482;28;20055;-81
2022/05/01 07:25:14;;;;;;;26.08;13.30;;;;;;;-141.50;100.00;63355.56;5095430;28;20051;-82
2022/05/01 07:27:48;;;;;;;23.83;12.30;;;;;;;-141.50;100.00;63355.56;5089552;28;20579;-81
2022/05/01 07:30:14;;;;;;;27.38;13.40;;;;;;;-141.50;100.00;63355.56;5089162;28;20083;-83
2022/05/01 07:32:41;;;;;;;31.88;13.93;;;;;;;-141.50;100.00;63355.56;5068765;28;20048;-81
2022/05/01 07:35:08;;;;;;;22.63;12.63;;;;;;;-141.50;100.00;63355.56;5094440;28;20447;-82
2022/05/01 07:37:35;;;;;;;24.67;13.63;;;;;;;-141.50;100.00;63355.56;5107156;28;20051;-84
2022/05/01 07:40:25;;;;;;;27.02;12.90;;;;;;;-141.50;100.00;63355.56;5109041;28;20137;-81
2022/05/01 07:42:51;;;;;;;24.90;11.18;;;;;;;-141.50;100.00;63355.56;5107545;28;20047;-82
2022/05/01 07:45:19;;;;;;;19.27;9.27;;;;;;;-141.50;100.00;63355.56;5092916;28;20048;-83
2022/05/01 07:47:51;;;;;;;24.48;11.00;;;;;;;-141.50;100.00;63355.56;5088333;28;20116;-82
2022/05/01 07:50:18;;;;;;;19.25;8.80;;;;;;;-141.50;100.00;63355.56;5088495;28;20063;-82
2022/05/01 07:52:49;;;;;;;19.88;9.45;;;;;;;-141.50;100.00;63355.56;5068904;28;20433;-81
2022/05/01 07:55:16;;;;;;;18.77;9.63;;;;;;;-141.50;100.00;63355.56;5087982;28;20063;-83
2022/05/01 07:57:43;;;;;;;21.00;10.25;;;;;;;-141.50;100.00;63355.56;5107478;28;20469;-82
2022/05/01 08:00:13;;;;;;;19.00;9.52;;;;;;;-141.50;100.00;63355.56;5107331;28;20424;-81
2022/05/01 08:05:29;;;;;;;17.60;9.23;;;;;;;-141.50;100.00;63355.56;5091125;28;20128;-82
2022/05/01 08:07:57;;;;;;;17.10;8.85;;;;;;;-141.50;100.00;63355.56;5086921;28;20674;-82
2022/05/01 08:10:24;;;;;;;18.48;9.10;;;;;;;-141.50;100.00;63355.56;5090696;28;20044;-80
2022/05/01 08:12:51;;;;;;;22.13;8.88;;;;;;;-141.50;100.00;63355.56;5094524;28;20175;-80
2022/05/01 08:15:24;;;;;;;22.42;10.25;;;;;;;-141.50;100.00;63355.56;5094150;27;20059;-83
2022/05/01 08:17:53;;;;;;;15.80;9.15;;;;;;;-141.50;100.00;63355.56;5091676;28;20105;-83
2022/05/01 08:23:10;;;;;;;18.27;9.10;;;;;;;-141.50;100.00;63355.56;5122507;28;20051;-81
2022/05/01 08:25:42;;;;;;;21.40;9.77;;;;;;;-141.50;100.00;63355.56;5116257;28;20032;-82
2022/05/01 08:28:09;;;;;;;20.52;9.32;;;;;;;-141.50;100.00;63355.56;5116482;28;20056;-81
2022/05/01 08:30:35;;;;;;;17.45;9.18;;;;;;;-141.50;100.00;63355.56;5111772;28;20502;-82
2022/05/01 08:33:04;;;;;;;17.52;9.73;;;;;;;-141.50;100.00;63355.56;5120274;28;20083;-81
2022/05/01 08:35:31;;;;;;;17.88;9.57;;;;;;;-141.50;100.00;63355.56;5093175;28;20059;-79
2022/05/01 08:37:57;;;;;;;18.13;9.30;;;;;;;-141.50;100.00;63355.56;5108725;28;20052;-81
2022/05/01 08:40:24;;;;;;;16.23;8.85;;;;;;;-141.50;100.00;63355.56;5114302;28;20054;-79
2022/05/01 08:42:53;;;;;;;15.55;9.07;;;;;;;-141.50;100.00;63355.56;5077661;28;20094;-82
2022/05/01 08:45:26;;;;;;;22.05;8.88;;;;;;;-141.50;100.00;63355.56;5097175;28;20086;-78
2022/05/01 08:48:04;;;;;;;18.17;9.50;;;;;;;-141.50;100.00;63355.56;5093073;28;20163;-82
2022/05/01 08:50:34;;;;;;;21.67;10.45;;;;;;;-141.50;100.00;63355.56;5094176;28;20044;-80
2022/05/01 08:53:02;;;;;;;19.40;9.63;;;;;;;-141.50;100.00;63355.56;5106210;28;20048;-83
2022/05/01 08:55:30;;;;;;;18.98;9.57;;;;;;;-141.50;100.00;63355.56;5096736;28;20176;-80
2022/05/01 08:57:59;;;;;;;20.38;10.85;;;;;;;-141.50;100.00;63355.56;5092298;28;20048;-80
2022/05/01 09:00:30;;;;;;;20.60;10.48;;;;;;;-141.50;100.00;63355.56;5109476;28;20040;-81
2022/05/01 09:02:57;;;;;;;16.65;10.80;;;;;;;-141.50;100.00;63355.56;5115816;28;20047;-81
2022/05/01 09:05:23;;;;;;;21.90;10.70;;;;;;;-141.50;100.00;63355.56;5085156;28;20044;-82
2022/05/01 09:07:52;;;;;;;23.45;10.63;;;;;;;-141.50;100.00;63355.56;5095271;28;20048;-83
2022/05/01 09:10:20;;;;;;;18.40;10.52;;;;;;;-141.50;100.00;63355.56;5109880;27;20499;-82
2022/05/01 09:12:55;;;;;;;18.95;10.27;;;;;;;-141.50;100.00;63355.56;5107523;27;20036;-83
2022/05/01 09:15:32;;;;;;;20.35;10.07;;;;;;;-141.50;100.00;63355.56;5112643;28;20039;-81
2022/05/01 09:18:08;;;;;;;17.75;9.70;;;;;;;-141.50;100.00;63355.56;5108503;28;20263;-85
2022/05/01 09:20:39;;;;;;;20.23;10.30;;;;;;;-141.50;100.00;63355.56;5103867;28;20101;-83
2022/05/01 09:23:27;;;;;;;16.25;9.43;;;;;;;-141.50;100.00;63355.56;5109715;28;20521;-80
2022/05/01 09:26:00;;;;;;;15.82;9.77;;;;;;;-141.50;100.00;63355.56;5087069;28;20070;-81
2022/05/01 09:28:30;;;;;;;16.10;9.45;;;;;;;-141.50;100.00;63355.56;5102693;28;20409;-79
2022/05/01 09:30:56;;;;;;;16.38;9.70;;;;;;;-141.50;100.00;63355.56;5112983;28;20087;-84
2022/05/01 09:33:23;;;;;;;18.00;8.90;;;;;;;-141.50;100.00;63355.56;5093284;28;20074;-82
2022/05/01 09:35:50;;;;;;;18.17;9.45;;;;;;;-141.50;100.00;63355.56;5106499;28;20051;-83
2022/05/01 09:38:27;;;;;;;16.00;8.80;;;;;;;-141.50;100.00;63355.56;5109490;28;20059;-82
2022/05/01 09:40:55;;;;;;;17.23;8.88;;;;;;;-141.50;100.00;63355.56;5084613;28;20092;-80
2022/05/01 09:43:36;;;;;;;17.10;8.85;;;;;;;-141.50;100.00;63355.56;5075961;28;20094;-81
2022/05/01 09:46:18;;;;;;;16.02;9.00;;;;;;;-141.50;100.00;63355.56;5087898;28;20052;-80
2022/05/01 09:48:59;;;;;;;20.70;8.77;;;;;;;-141.50;100.00;63355.56;5094986;28;20584;-82
2022/05/01 09:51:30;;;;;;;21.88;8.57;;;;;;;-141.50;100.00;63355.56;5087034;28;20064;-82
2022/05/01 09:54:03;;;;;;;13.43;8.07;;;;;;;-141.50;100.00;63355.56;5087585;28;20405;-82
2022/05/01 09:56:54;;;;;;;24.67;8.18;;;;;;;-141.50;100.00;63355.56;5103739;28;20056;-83
2022/05/01 09:59:26;;;;;;;17.70;8.00;;;;;;;-141.50;100.00;63355.56;5103018;28;20140;-82
2022/05/01 10:02:04;;;;;;;18.75;7.93;;;;;;;-141.50;100.00;63355.56;5085977;28;20079;-83
2022/05/01 10:04:33;;;;;;;11.60;7.60;;;;;;;-141.50;100.00;63355.56;5088525;28;20052;-81
2022/05/01 10:07:03;;;;;;;13.10;7.70;;;;;;;-141.50;100.00;63355.56;5068944;28;20129;-82
2022/05/01 10:09:35;;;;;;;12.57;7.43;;;;;;;-141.50;100.00;63355.56;5089070;28;20109;-82
2022/05/01 10:12:07;;;;;;;13.93;7.20;;;;;;;-141.50;100.00;63355.56;5068784;28;20138;-81
2022/05/01 10:14:34;;;;;;;14.73;7.60;;;;;;;-141.50;100.00;63355.56;5105091;28;20062;-82
2022/05/01 10:17:06;;;;;;;10.02;6.85;;;;;;;-141.50;100.00;63355.56;5095928;28;20473;-84
2022/05/01 10:19:35;;;;;;;12.68;7.38;;;;;;;-141.50;100.00;63355.56;5093814;28;20055;-84
2022/05/01 10:22:08;;;;;;;11.60;7.07;;;;;;;-141.50;100.00;63355.56;5103719;28;20162;-82
2022/05/01 10:24:39;;;;;;;12.48;7.55;;;;;;;-141.50;100.00;63355.56;5106054;28;20051;-83
2022/05/01 10:27:30;;;;;;;13.23;6.97;;;;;;;-141.50;100.00;63355.56;5104274;28;20071;-82
2022/05/01 10:33:36;;;;;;;13.63;6.63;;;;;;;-141.50;100.00;63355.56;5097186;28;20485;-82
2022/05/01 10:36:18;;;;;;;11.52;7.35;;;;;;;-141.50;100.00;63355.56;5072686;28;20711;-81
2022/05/01 10:39:16;;;;;;;13.63;6.88;;;;;;;-141.50;100.00;63355.56;5096081;28;20048;-82
2022/05/01 10:41:45;;;;;;;13.02;7.00;;;;;;;-141.50;100.00;63355.56;5095996;28;20135;-82
2022/05/01 10:44:33;;;;;;;14.65;6.88;;;;;;;-141.50;100.00;63355.56;5095039;28;20147;-84
2022/05/01 10:47:12;;;;;;;11.43;6.97;;;;;;;-141.50;100.00;63355.56;5097476;28;20109;-85
2022/05/01 10:49:47;;;;;;;10.60;7.00;;;;;;;-141.50;100.00;63355.56;5098310;28;20155;-83
2022/05/01 10:52:20;;;;;;;9.93;6.47;;;;;;;-141.50;100.00;63355.56;5086677;28;20534;-84
2022/05/01 10:55:16;;;;;;;;;;;;;;;;;;;;;
2022/05/01 10:58:03;;;;;;;;;;;;;;;-141.50;100.00;63355.56;5107151;28;20059;-83
2022/05/01 11:00:29;;;;;;;12.45;6.68;;;;;;;-141.50;100.00;63355.56;5109081;28;20398;-81
2022/05/01 11:02:58;;;;;;;12.15;6.45;;;;;;;-141.50;100.00;63355.56;5111819;28;20071;-84
2022/05/01 11:05:44;;;;;;;11.70;6.53;;;;;;;-141.50;100.00;63355.56;5104785;28;20064;-85
2022/05/01 11:08:23;;;;;;;10.18;6.57;;;;;;;-141.50;100.00;63355.56;5100564;28;20047;-82
2022/05/01 11:10:54;;;;;;;13.57;7.38;;;;;;;-141.50;100.00;63355.56;5118050;28;20116;-81
2022/05/01 11:13:53;;;;;;;11.93;6.75;;;;;;;-141.50;100.00;63355.56;5115762;28;20087;-81
2022/05/01 11:16:49;;;;;;;17.38;6.35;;;;;;;-141.50;100.00;63355.56;5085681;28;20048;-84
2022/05/01 11:19:20;;;;;;;13.68;6.60;;;;;;;-141.50;100.00;63355.56;5099940;28;20282;-82
2022/05/01 11:21:51;;;;;;;15.40;7.55;;;;;;;-141.50;100.00;63355.56;5113153;28;20055;-83
2022/05/01 11:24:44;;;;;;;10.43;6.63;;;;;;;-141.50;100.00;63355.56;5095551;28;20043;-80
2022/05/01 11:27:51;;;;;;;11.25;6.30;;;;;;;-141.50;100.00;63355.56;5075158;28;20059;-82
2022/05/01 11:30:27;;;;;;;14.65;6.75;;;;;;;-141.50;100.00;63355.56;5106288;28;20101;-82
2022/05/01 11:33:08;;;;;;;11.35;6.80;;;;;;;-141.50;100.00;63355.56;5107870;28;20063;-82
2022/05/01 11:36:00;;;;;;;10.27;6.10;;;;;;;-141.50;100.00;63355.56;5100023;28;20063;-81
2022/05/01 11:38:35;;;;;;;11.50;6.15;;;;;;;-141.50;100.00;63355.56;5096978;28;20119;-82